createdAt,value
2018-09-23T00:00:36.201Z,33.40
2018-09-23T00:01:35.741Z,32.00
2018-09-23T00:02:35.667Z,35.10
2018-09-23T00:03:35.627Z,35.20
2018-09-23T00:04:35.595Z,35.60
2018-09-23T00:05:35.562Z,36.00
2018-09-23T00:06:35.526Z,37.60
2018-09-23T00:07:35.496Z,38.30
2018-09-23T00:08:35.461Z,38.20
2018-09-23T00:09:35.421Z,39.10
2018-09-23T00:10:35.385Z,39.50
2018-09-23T00:11:35.348Z,39.00
2018-09-23T00:12:35.313Z,38.50
2018-09-23T00:13:35.279Z,39.10
2018-09-23T00:14:35.248Z,37.80
2018-09-23T00:15:35.210Z,37.90
2018-09-23T00:16:35.184Z,38.20
2018-09-23T00:17:35.143Z,37.70
2018-09-23T00:18:35.105Z,38.60
2018-09-23T00:19:35.069Z,38.80
2018-09-23T00:20:35.041Z,37.20
2018-09-23T00:21:34.995Z,38.50
2018-09-23T00:22:34.962Z,36.80
2018-09-23T00:23:34.931Z,37.60
2018-09-23T00:24:34.896Z,38.90
2018-09-23T00:25:34.900Z,36.50
2018-09-23T00:26:34.823Z,35.30
2018-09-23T00:27:34.785Z,35.10
2018-09-23T00:28:34.752Z,35.40
2018-09-23T00:29:34.726Z,34.10
2018-09-23T00:30:34.712Z,36.10
2018-09-23T00:31:34.648Z,32.40
2018-09-23T00:32:34.615Z,33.50
2018-09-23T00:33:34.577Z,32.00
2018-09-23T00:34:35.166Z,32.60
2018-09-23T00:35:34.539Z,34.40
2018-09-23T00:36:34.479Z,33.20
2018-09-23T00:37:34.442Z,32.50
2018-09-23T00:38:34.400Z,34.00
2018-09-23T00:39:34.364Z,33.50
2018-09-23T00:40:34.332Z,32.30
2018-09-23T00:41:34.309Z,33.20
2018-09-23T00:42:34.264Z,30.90
2018-09-23T00:43:34.222Z,32.40
2018-09-23T00:44:34.188Z,29.90
2018-09-23T00:45:34.160Z,31.10
2018-09-23T00:46:34.119Z,31.40
2018-09-23T00:47:34.084Z,30.40
2018-09-23T00:48:34.053Z,30.50
2018-09-23T00:49:34.023Z,30.80
2018-09-23T00:50:33.985Z,30.80
2018-09-23T00:51:33.943Z,28.00
2018-09-23T00:52:33.909Z,29.70
2018-09-23T00:53:33.875Z,26.70
2018-09-23T00:54:33.842Z,26.90
2018-09-23T00:55:33.806Z,25.80
2018-09-23T00:56:34.007Z,24.50
2018-09-23T00:57:33.736Z,22.80
2018-09-23T00:58:33.700Z,24.80
2018-09-23T00:59:33.668Z,25.00
2018-09-23T01:00:34.041Z,22.80
2018-09-23T01:01:33.592Z,21.20
2018-09-23T01:02:33.560Z,20.80
2018-09-23T01:03:33.524Z,22.50
2018-09-23T01:04:33.488Z,19.20
2018-09-23T01:05:33.453Z,17.50
2018-09-23T01:06:33.416Z,18.10
2018-09-23T01:07:33.380Z,19.50
2018-09-23T01:08:33.344Z,18.10
2018-09-23T01:09:33.314Z,18.40
2018-09-23T01:10:33.278Z,18.20
2018-09-23T01:11:33.239Z,16.50
2018-09-23T01:12:33.208Z,17.50
2018-09-23T01:13:33.174Z,15.70
2018-09-23T01:14:33.133Z,14.80
2018-09-23T01:15:33.101Z,16.50
2018-09-23T01:16:33.062Z,15.10
2018-09-23T01:17:33.044Z,14.20
2018-09-23T01:18:32.998Z,15.60
2018-09-23T01:19:32.963Z,15.10
2018-09-23T01:20:32.939Z,16.60
2018-09-23T01:21:32.886Z,18.60
2018-09-23T01:22:32.851Z,19.30
2018-09-23T01:23:32.833Z,19.20
2018-09-23T01:24:32.779Z,17.80
2018-09-23T01:25:32.744Z,18.00
2018-09-23T01:26:33.148Z,17.20
2018-09-23T01:27:32.682Z,17.70
2018-09-23T01:28:32.641Z,19.10
2018-09-23T01:29:33.164Z,17.60
2018-09-23T01:30:32.568Z,16.60
2018-09-23T01:31:32.530Z,16.50
2018-09-23T01:32:32.500Z,18.10
2018-09-23T01:33:32.460Z,16.80
2018-09-23T01:34:32.424Z,17.10
2018-09-23T01:35:33.175Z,17.60
2018-09-23T01:36:32.360Z,18.60
2018-09-23T01:37:32.323Z,17.90
2018-09-23T01:38:32.284Z,17.50
2018-09-23T01:39:32.247Z,17.50
2018-09-23T01:40:32.212Z,17.60
2018-09-23T01:41:32.175Z,17.80
2018-09-23T01:42:32.145Z,16.80
2018-09-23T01:43:32.108Z,17.90
2018-09-23T01:44:32.077Z,18.00
2018-09-23T01:45:32.040Z,17.90
2018-09-23T01:46:32.003Z,19.30
2018-09-23T01:47:31.970Z,18.00
2018-09-23T01:48:31.931Z,18.00
2018-09-23T01:49:31.901Z,17.50
2018-09-23T01:50:31.864Z,18.80
2018-09-23T01:51:31.833Z,17.80
2018-09-23T01:52:31.803Z,17.50
2018-09-23T01:53:31.753Z,16.80
2018-09-23T01:54:31.719Z,19.80
2018-09-23T01:55:31.684Z,18.10
2018-09-23T01:56:31.651Z,18.60
2018-09-23T01:57:31.619Z,19.00
2018-09-23T01:58:31.579Z,19.70
2018-09-23T01:59:31.544Z,20.60
2018-09-23T02:00:31.510Z,19.30
2018-09-23T02:01:31.473Z,19.10
2018-09-23T02:02:31.437Z,20.00
2018-09-23T02:03:31.405Z,20.10
2018-09-23T02:04:31.372Z,20.20
2018-09-23T02:05:31.331Z,20.30
2018-09-23T02:06:31.295Z,20.50
2018-09-23T02:07:31.261Z,21.70
2018-09-23T02:08:31.225Z,22.60
2018-09-23T02:09:31.194Z,22.00
2018-09-23T02:10:31.155Z,22.30
2018-09-23T02:11:31.122Z,23.30
2018-09-23T02:12:31.085Z,24.50
2018-09-23T02:13:31.050Z,25.70
2018-09-23T02:14:31.019Z,25.90
2018-09-23T02:15:31.006Z,25.80
2018-09-23T02:16:30.946Z,27.10
2018-09-23T02:17:30.910Z,27.80
2018-09-23T02:18:30.877Z,30.40
2018-09-23T02:19:30.834Z,29.60
2018-09-23T02:20:30.798Z,29.60
2018-09-23T02:21:30.770Z,30.20
2018-09-23T02:22:30.767Z,31.00
2018-09-23T02:23:30.696Z,29.60
2018-09-23T02:24:30.661Z,31.10
2018-09-23T02:25:30.628Z,32.10
2018-09-23T02:26:30.595Z,32.30
2018-09-23T02:27:30.561Z,32.90
2018-09-23T02:28:30.521Z,32.20
2018-09-23T02:29:30.510Z,33.00
2018-09-23T02:30:30.456Z,32.70
2018-09-23T02:31:31.024Z,34.70
2018-09-23T02:32:30.388Z,34.60
2018-09-23T02:33:30.399Z,35.00
2018-09-23T02:34:31.108Z,33.80
2018-09-23T02:35:30.278Z,34.80
2018-09-23T02:36:30.242Z,35.10
2018-09-23T02:37:30.237Z,35.80
2018-09-23T02:38:30.172Z,33.90
2018-09-23T02:39:30.133Z,36.60
2018-09-23T02:40:30.095Z,37.40
2018-09-23T02:41:30.065Z,36.70
2018-09-23T02:42:30.029Z,38.40
2018-09-23T02:43:30.000Z,36.10
2018-09-23T02:44:29.967Z,37.50
2018-09-23T02:45:29.923Z,36.60
2018-09-23T02:46:29.885Z,35.90
2018-09-23T02:47:29.853Z,36.20
2018-09-23T02:48:29.816Z,40.30
2018-09-23T02:49:29.782Z,38.80
2018-09-23T02:50:29.783Z,39.20
2018-09-23T02:51:29.710Z,39.70
2018-09-23T02:52:29.675Z,42.50
2018-09-23T02:53:29.640Z,41.30
2018-09-23T02:54:29.606Z,40.10
2018-09-23T02:55:29.582Z,42.50
2018-09-23T02:56:29.535Z,41.70
2018-09-23T02:57:29.503Z,44.40
2018-09-23T02:58:29.465Z,42.60
2018-09-23T02:59:29.452Z,43.60
2018-09-23T03:00:29.431Z,41.00
2018-09-23T03:01:29.388Z,42.30
2018-09-23T03:02:29.328Z,43.80
2018-09-23T03:03:29.286Z,44.70
2018-09-23T03:04:29.252Z,44.90
2018-09-23T03:05:29.218Z,43.00
2018-09-23T03:06:29.192Z,44.60
2018-09-23T03:07:29.147Z,43.50
2018-09-23T03:08:29.140Z,43.60
2018-09-23T03:09:29.091Z,42.90
2018-09-23T03:10:29.045Z,41.00
2018-09-23T03:11:29.013Z,41.00
2018-09-23T03:12:28.969Z,40.20
2018-09-23T03:13:28.938Z,41.80
2018-09-23T03:14:28.908Z,41.30
2018-09-23T03:15:28.870Z,38.40
2018-09-23T03:16:28.833Z,36.40
2018-09-23T03:17:28.796Z,36.70
2018-09-23T03:18:28.768Z,37.50
2018-09-23T03:19:28.758Z,37.00
2018-09-23T03:20:28.688Z,35.30
2018-09-23T03:21:28.649Z,34.20
2018-09-23T03:22:28.623Z,34.10
2018-09-23T03:23:28.579Z,35.10
2018-09-23T03:24:28.548Z,33.80
2018-09-23T03:25:28.512Z,31.70
2018-09-23T03:26:28.489Z,32.60
2018-09-23T03:27:28.451Z,31.20
2018-09-23T03:28:28.442Z,31.00
2018-09-23T03:29:28.372Z,28.40
2018-09-23T03:30:28.333Z,29.80
2018-09-23T03:31:29.085Z,29.20
2018-09-23T03:32:29.088Z,27.60
2018-09-23T03:33:28.231Z,28.30
2018-09-23T03:34:28.194Z,27.90
2018-09-23T03:35:28.164Z,25.90
2018-09-23T03:36:28.124Z,28.40
2018-09-23T03:37:28.099Z,27.40
2018-09-23T03:38:28.050Z,27.70
2018-09-23T03:39:28.019Z,27.10
2018-09-23T03:40:27.983Z,28.40
2018-09-23T03:41:27.951Z,28.90
2018-09-23T03:42:27.910Z,26.60
2018-09-23T03:43:27.876Z,27.30
2018-09-23T03:44:27.842Z,28.10
2018-09-23T03:45:27.807Z,29.60
2018-09-23T03:46:27.777Z,27.20
2018-09-23T03:47:27.751Z,29.30
2018-09-23T03:48:27.704Z,31.40
2018-09-23T03:49:27.667Z,27.50
2018-09-23T03:50:27.853Z,27.50
2018-09-23T03:51:27.616Z,27.10
2018-09-23T03:52:27.560Z,31.60
2018-09-23T03:53:27.525Z,29.40
2018-09-23T03:54:27.488Z,27.70
2018-09-23T03:55:27.455Z,27.80
2018-09-23T03:56:27.420Z,28.30
2018-09-23T03:57:27.384Z,29.80
2018-09-23T03:58:27.346Z,31.50
2018-09-23T03:59:27.311Z,31.70
2018-09-23T04:00:27.281Z,32.50
2018-09-23T04:01:27.246Z,28.80
2018-09-23T04:02:27.208Z,31.00
2018-09-23T04:03:27.168Z,33.10
2018-09-23T04:04:27.144Z,30.20
2018-09-23T04:05:27.106Z,32.30
2018-09-23T04:06:27.072Z,34.80
2018-09-23T04:07:27.040Z,34.20
2018-09-23T04:08:27.005Z,30.90
2018-09-23T04:09:26.972Z,29.60
2018-09-23T04:10:26.936Z,29.30
2018-09-23T04:11:26.909Z,31.70
2018-09-23T04:12:26.857Z,33.00
2018-09-23T04:13:26.823Z,29.10
2018-09-23T04:14:26.792Z,28.60
2018-09-23T04:15:26.750Z,31.30
2018-09-23T04:16:26.714Z,28.90
2018-09-23T04:17:26.678Z,28.70
2018-09-23T04:18:26.672Z,27.30
2018-09-23T04:19:26.605Z,26.10
2018-09-23T04:20:26.570Z,27.00
2018-09-23T04:21:26.541Z,25.20
2018-09-23T04:22:26.516Z,24.70
2018-09-23T04:23:26.463Z,24.50
2018-09-23T04:24:26.429Z,24.50
2018-09-23T04:25:26.403Z,25.00
2018-09-23T04:26:26.366Z,25.60
2018-09-23T04:27:26.696Z,24.90
2018-09-23T04:28:26.296Z,26.10
2018-09-23T04:29:26.257Z,23.60
2018-09-23T04:30:26.217Z,25.00
2018-09-23T04:31:26.187Z,26.70
2018-09-23T04:32:26.150Z,26.30
2018-09-23T04:33:26.117Z,23.80
2018-09-23T04:34:26.082Z,26.20
2018-09-23T04:35:26.043Z,23.40
2018-09-23T04:36:26.004Z,23.80
2018-09-23T04:37:25.977Z,23.00
2018-09-23T04:38:25.937Z,22.00
2018-09-23T04:39:25.904Z,24.30
2018-09-23T04:40:25.872Z,23.50
2018-09-23T04:41:25.831Z,23.50
2018-09-23T04:42:25.798Z,23.70
2018-09-23T04:43:25.757Z,26.10
2018-09-23T04:44:25.729Z,25.50
2018-09-23T04:45:25.691Z,25.10
2018-09-23T04:46:25.652Z,25.30
2018-09-23T04:47:25.619Z,27.30
2018-09-23T04:48:25.586Z,27.20
2018-09-23T04:49:25.573Z,26.50
2018-09-23T04:50:25.508Z,27.30
2018-09-23T04:51:25.525Z,27.10
2018-09-23T04:52:25.444Z,26.80
2018-09-23T04:53:25.415Z,28.50
2018-09-23T04:54:25.379Z,27.50
2018-09-23T04:55:25.470Z,28.00
2018-09-23T04:56:25.310Z,28.90
2018-09-23T04:57:25.276Z,26.50
2018-09-23T04:58:25.228Z,27.00
2018-09-23T04:59:25.193Z,26.60
2018-09-23T05:00:25.163Z,27.90
2018-09-23T05:01:25.142Z,26.90
2018-09-23T05:02:25.090Z,26.40
2018-09-23T05:03:25.589Z,26.80
2018-09-23T05:04:25.016Z,26.60
2018-09-23T05:05:25.592Z,26.30
2018-09-23T05:06:24.987Z,26.00
2018-09-23T05:07:24.940Z,26.00
2018-09-23T05:08:24.886Z,26.40
2018-09-23T05:09:24.847Z,27.00
2018-09-23T05:10:24.810Z,27.20
2018-09-23T05:11:24.783Z,26.70
2018-09-23T05:12:24.736Z,25.90
2018-09-23T05:13:24.702Z,27.80
2018-09-23T05:14:24.923Z,28.60
2018-09-23T05:15:25.164Z,27.40
2018-09-23T05:16:24.598Z,29.80
2018-09-23T05:17:24.564Z,27.80
2018-09-23T05:18:24.532Z,28.50
2018-09-23T05:19:24.497Z,29.40
2018-09-23T05:20:24.461Z,28.90
2018-09-23T05:21:24.420Z,27.50
2018-09-23T05:22:24.397Z,27.80
2018-09-23T05:23:24.356Z,29.70
2018-09-23T05:24:24.326Z,28.90
2018-09-23T05:25:24.275Z,28.20
2018-09-23T05:26:24.246Z,28.80
2018-09-23T05:27:24.211Z,29.00
2018-09-23T05:28:24.173Z,28.00
2018-09-23T05:29:24.157Z,29.00
2018-09-23T05:30:24.117Z,29.90
2018-09-23T05:31:24.067Z,29.20
2018-09-23T05:32:24.040Z,27.20
2018-09-23T05:33:23.998Z,28.50
2018-09-23T05:34:23.967Z,28.70
2018-09-23T05:35:23.950Z,28.40
2018-09-23T05:36:23.895Z,28.80
2018-09-23T05:37:23.883Z,29.20
2018-09-23T05:38:23.827Z,29.50
2018-09-23T05:39:23.798Z,27.80
2018-09-23T05:40:23.761Z,28.10
2018-09-23T05:41:23.719Z,28.10
2018-09-23T05:42:23.685Z,29.30
2018-09-23T05:43:23.649Z,29.30
2018-09-23T05:44:23.613Z,28.30
2018-09-23T05:45:23.589Z,28.60
2018-09-23T05:46:23.544Z,27.70
2018-09-23T05:47:23.511Z,28.30
2018-09-23T05:48:23.473Z,30.50
2018-09-23T05:49:23.439Z,29.70
2018-09-23T05:50:23.405Z,31.10
2018-09-23T05:51:23.375Z,30.00
2018-09-23T05:52:23.330Z,30.80
2018-09-23T05:53:23.311Z,29.90
2018-09-23T05:54:23.284Z,31.10
2018-09-23T05:55:23.230Z,29.70
2018-09-23T05:56:23.228Z,30.40
2018-09-23T05:57:23.157Z,29.00
2018-09-23T05:58:23.147Z,29.40
2018-09-23T05:59:23.102Z,29.50
2018-09-23T06:00:23.089Z,28.80
2018-09-23T06:01:23.018Z,30.90
2018-09-23T06:02:22.988Z,30.20
2018-09-23T06:03:22.950Z,29.80
2018-09-23T06:04:22.919Z,30.10
2018-09-23T06:05:22.879Z,29.00
2018-09-23T06:06:22.845Z,29.50
2018-09-23T06:07:22.821Z,28.60
2018-09-23T06:08:22.772Z,31.30
2018-09-23T06:09:22.734Z,31.10
2018-09-23T06:10:22.704Z,31.90
2018-09-23T06:11:22.695Z,31.20
2018-09-23T06:12:22.632Z,29.10
2018-09-23T06:13:22.606Z,30.80
2018-09-23T06:14:22.562Z,30.10
2018-09-23T06:15:22.529Z,31.20
2018-09-23T06:16:22.496Z,30.70
2018-09-23T06:17:22.467Z,30.30
2018-09-23T06:18:22.483Z,30.20
2018-09-23T06:19:22.405Z,29.20
2018-09-23T06:20:22.353Z,27.70
2018-09-23T06:21:22.327Z,26.90
2018-09-23T06:22:22.281Z,27.70
2018-09-23T06:23:22.249Z,28.90
2018-09-23T06:24:22.215Z,27.10
2018-09-23T06:25:22.262Z,28.30
2018-09-23T06:26:22.147Z,26.60
2018-09-23T06:27:22.109Z,26.90
2018-09-23T06:28:22.078Z,25.90
2018-09-23T06:29:22.042Z,26.00
2018-09-23T06:30:22.013Z,25.50
2018-09-23T06:31:21.972Z,27.00
2018-09-23T06:32:21.946Z,24.40
2018-09-23T06:33:21.902Z,24.50
2018-09-23T06:34:21.867Z,24.60
2018-09-23T06:35:21.840Z,25.20
2018-09-23T06:36:21.798Z,25.70
2018-09-23T06:37:21.771Z,26.20
2018-09-23T06:38:21.726Z,26.80
2018-09-23T06:39:21.696Z,25.30
2018-09-23T06:40:21.656Z,23.40
2018-09-23T06:41:21.645Z,23.40
2018-09-23T06:42:21.613Z,24.10
2018-09-23T06:43:21.556Z,25.30
2018-09-23T06:44:21.521Z,25.90
2018-09-23T06:45:21.483Z,26.20
2018-09-23T06:46:21.452Z,28.30
2018-09-23T06:47:21.426Z,25.80
2018-09-23T06:48:21.406Z,25.60
2018-09-23T06:49:21.352Z,26.40
2018-09-23T06:50:21.315Z,28.20
2018-09-23T06:51:21.281Z,26.00
2018-09-23T06:52:21.248Z,25.60
2018-09-23T06:53:21.209Z,27.10
2018-09-23T06:54:21.175Z,28.30
2018-09-23T06:55:21.141Z,26.30
2018-09-23T06:56:21.116Z,25.20
2018-09-23T06:57:21.099Z,27.70
2018-09-23T06:58:21.037Z,27.30
2018-09-23T06:59:21.043Z,27.80
2018-09-23T07:00:20.969Z,28.10
2018-09-23T07:01:20.936Z,29.80
2018-09-23T07:02:20.901Z,28.20
2018-09-23T07:03:20.872Z,26.20
2018-09-23T07:04:20.852Z,26.10
2018-09-23T07:05:20.795Z,26.60
2018-09-23T07:06:20.761Z,27.60
2018-09-23T07:07:20.727Z,26.80
2018-09-23T07:08:20.690Z,29.50
2018-09-23T07:09:20.661Z,29.30
2018-09-23T07:10:20.656Z,27.20
2018-09-23T07:11:20.592Z,27.90
2018-09-23T07:12:20.556Z,26.60
2018-09-23T07:13:20.527Z,27.90
2018-09-23T07:14:20.493Z,26.00
2018-09-23T07:15:20.454Z,23.00
2018-09-23T07:16:20.422Z,23.70
2018-09-23T07:17:20.643Z,23.20
2018-09-23T07:18:20.359Z,25.30
2018-09-23T07:19:20.330Z,24.40
2018-09-23T07:20:20.285Z,24.20
2018-09-23T07:21:20.248Z,24.40
2018-09-23T07:22:20.219Z,23.20
2018-09-23T07:23:20.182Z,19.20
2018-09-23T07:24:20.167Z,19.70
2018-09-23T07:25:20.113Z,20.80
2018-09-23T07:26:20.078Z,20.30
2018-09-23T07:27:20.047Z,19.70
2018-09-23T07:28:20.017Z,19.20
2018-09-23T07:29:19.985Z,19.20
2018-09-23T07:30:19.940Z,18.00
2018-09-23T07:31:19.912Z,17.60
2018-09-23T07:32:19.877Z,17.90
2018-09-23T07:33:19.838Z,16.90
2018-09-23T07:34:19.814Z,17.00
2018-09-23T07:35:19.771Z,16.20
2018-09-23T07:36:19.738Z,15.90
2018-09-23T07:37:19.742Z,16.10
2018-09-23T07:38:19.680Z,16.40
2018-09-23T07:39:19.699Z,16.40
2018-09-23T07:40:19.603Z,14.80
2018-09-23T07:41:19.572Z,13.60
2018-09-23T07:42:19.537Z,13.80
2018-09-23T07:43:19.500Z,14.20
2018-09-23T07:44:19.467Z,15.30
2018-09-23T07:45:19.433Z,17.00
2018-09-23T07:46:19.402Z,16.40
2018-09-23T07:47:19.370Z,17.70
2018-09-23T07:48:19.337Z,17.80
2018-09-23T07:49:19.303Z,16.80
2018-09-23T07:50:19.263Z,16.90
2018-09-23T07:51:19.233Z,14.40
2018-09-23T07:52:19.201Z,15.10
2018-09-23T07:53:19.170Z,14.60
2018-09-23T07:54:19.126Z,15.40
2018-09-23T07:55:19.107Z,14.50
2018-09-23T07:56:19.098Z,14.70
2018-09-23T07:57:19.032Z,15.00
2018-09-23T07:58:18.994Z,15.40
2018-09-23T07:59:18.974Z,15.60
2018-09-23T08:00:18.931Z,15.30
2018-09-23T08:01:18.904Z,15.60
2018-09-23T08:02:18.891Z,16.10
2018-09-23T08:03:18.842Z,17.80
2018-09-23T08:04:18.796Z,16.40
2018-09-23T08:05:18.759Z,15.80
2018-09-23T08:06:18.727Z,13.70
2018-09-23T08:07:18.697Z,14.40
2018-09-23T08:08:18.665Z,14.50
2018-09-23T08:09:18.634Z,13.50
2018-09-23T08:10:18.701Z,11.70
2018-09-23T08:11:18.558Z,12.60
2018-09-23T08:12:18.590Z,11.60
2018-09-23T08:13:18.528Z,12.10
2018-09-23T08:14:19.061Z,12.50
2018-09-23T08:15:18.422Z,13.50
2018-09-23T08:16:18.401Z,13.80
2018-09-23T08:17:18.379Z,15.10
2018-09-23T08:18:18.324Z,12.10
2018-09-23T08:19:18.413Z,13.50
2018-09-23T08:20:18.324Z,12.90
2018-09-23T08:21:18.249Z,11.20
2018-09-23T08:22:18.196Z,11.00
2018-09-23T08:23:18.289Z,11.40
2018-09-23T08:24:18.142Z,11.10
2018-09-23T08:25:18.302Z,11.00
2018-09-23T08:26:18.072Z,10.40
2018-09-23T08:27:18.032Z,10.40
2018-09-23T08:28:17.994Z,10.50
2018-09-23T08:29:17.981Z,9.20
2018-09-23T08:30:17.951Z,8.50
2018-09-23T08:31:17.895Z,8.30
2018-09-23T08:32:17.870Z,8.90
2018-09-23T08:33:17.835Z,9.20
2018-09-23T08:34:17.794Z,10.00
2018-09-23T08:35:17.758Z,10.20
2018-09-23T08:36:17.731Z,9.40
2018-09-23T08:37:17.714Z,7.90
2018-09-23T08:38:17.662Z,6.30
2018-09-23T08:39:17.628Z,7.90
2018-09-23T08:40:17.597Z,7.40
2018-09-23T08:41:17.572Z,7.20
2018-09-23T08:42:17.527Z,7.60
2018-09-23T08:43:17.561Z,6.80
2018-09-23T08:44:17.468Z,6.80
2018-09-23T08:45:17.432Z,6.00
2018-09-23T08:46:17.396Z,6.50
2018-09-23T08:47:17.364Z,6.10
2018-09-23T08:48:17.365Z,6.50
2018-09-23T08:49:17.294Z,7.00
2018-09-23T08:50:17.270Z,6.70
2018-09-23T08:51:17.230Z,7.20
2018-09-23T08:52:17.279Z,7.30
2018-09-23T08:53:17.163Z,7.30
2018-09-23T08:54:17.139Z,6.90
2018-09-23T08:55:17.101Z,7.20
2018-09-23T08:56:17.067Z,8.30
2018-09-23T08:57:17.089Z,8.40
2018-09-23T08:58:16.999Z,7.80
2018-09-23T08:59:16.976Z,6.80
2018-09-23T09:00:16.969Z,7.00
2018-09-23T09:01:16.899Z,6.80
2018-09-23T09:02:16.901Z,5.80
2018-09-23T09:03:16.835Z,6.40
2018-09-23T09:04:16.797Z,6.30
2018-09-23T09:05:16.792Z,6.60
2018-09-23T09:06:16.755Z,6.40
2018-09-23T09:07:16.701Z,6.30
2018-09-23T09:08:16.692Z,6.70
2018-09-23T09:09:16.650Z,6.90
2018-09-23T09:10:16.605Z,7.50
2018-09-23T09:11:16.577Z,7.70
2018-09-23T09:12:16.567Z,7.80
2018-09-23T09:13:16.505Z,7.90
2018-09-23T09:14:16.469Z,7.50
2018-09-23T09:15:16.439Z,6.80
2018-09-23T09:16:16.401Z,5.70
2018-09-23T09:17:16.374Z,5.30
2018-09-23T09:18:16.418Z,4.10
2018-09-23T09:19:16.308Z,4.30
2018-09-23T09:20:16.271Z,5.60
2018-09-23T09:21:16.247Z,5.20
2018-09-23T09:22:16.211Z,5.70
2018-09-23T09:23:16.175Z,5.50
2018-09-23T09:24:16.152Z,5.20
2018-09-23T09:25:16.139Z,5.20
2018-09-23T09:26:16.078Z,4.90
2018-09-23T09:27:16.108Z,4.40
2018-09-23T09:28:16.027Z,4.30
2018-09-23T09:29:15.989Z,4.20
2018-09-23T09:30:15.951Z,4.90
2018-09-23T09:31:15.923Z,5.30
2018-09-23T09:32:15.886Z,4.50
2018-09-23T09:33:15.862Z,4.70
2018-09-23T09:34:15.823Z,4.70
2018-09-23T09:35:16.153Z,4.70
2018-09-23T09:36:15.779Z,4.40
2018-09-23T09:37:15.725Z,4.80
2018-09-23T09:38:15.701Z,3.80
2018-09-23T09:39:15.660Z,3.80
2018-09-23T09:40:15.626Z,4.10
2018-09-23T09:41:15.594Z,3.70
2018-09-23T09:42:15.569Z,3.80
2018-09-23T09:43:15.521Z,4.10
2018-09-23T09:44:15.494Z,4.40
2018-09-23T09:45:15.462Z,4.40
2018-09-23T09:46:15.431Z,5.30
2018-09-23T09:47:15.391Z,4.50
2018-09-23T09:48:15.386Z,4.40
2018-09-23T09:49:15.332Z,4.30
2018-09-23T09:50:15.295Z,3.20
2018-09-23T09:51:15.264Z,2.60
2018-09-23T09:52:15.229Z,2.70
2018-09-23T09:53:15.205Z,3.30
2018-09-23T09:54:15.172Z,3.30
2018-09-23T09:55:15.134Z,3.50
2018-09-23T09:56:15.128Z,4.30
2018-09-23T09:57:15.067Z,3.70
2018-09-23T09:58:15.034Z,3.60
2018-09-23T09:59:15.005Z,3.20
2018-09-23T10:00:14.991Z,4.40
2018-09-23T10:01:14.931Z,3.50
2018-09-23T10:02:15.033Z,3.10
2018-09-23T10:03:14.879Z,3.60
2018-09-23T10:04:14.865Z,3.40
2018-09-23T10:05:14.807Z,2.80
2018-09-23T10:06:14.778Z,3.00
2018-09-23T10:07:14.746Z,3.20
2018-09-23T10:08:14.707Z,2.90
2018-09-23T10:09:14.682Z,2.90
2018-09-23T10:10:14.650Z,2.60
2018-09-23T10:11:14.609Z,2.30
2018-09-23T10:12:14.588Z,2.40
2018-09-23T10:13:14.551Z,2.60
2018-09-23T10:14:14.459Z,2.30
2018-09-23T10:15:14.476Z,2.80
2018-09-23T10:16:14.448Z,3.20
2018-09-23T10:17:14.415Z,2.60
2018-09-23T10:18:14.389Z,2.70
2018-09-23T10:19:14.360Z,1.90
2018-09-23T10:20:14.324Z,2.40
2018-09-23T10:21:14.231Z,2.30
2018-09-23T10:22:14.257Z,1.90
2018-09-23T10:23:14.337Z,2.40
2018-09-23T10:24:14.190Z,2.40
2018-09-23T10:25:14.136Z,2.80
2018-09-23T10:26:14.192Z,2.80
2018-09-23T10:27:14.040Z,2.60
2018-09-23T10:28:14.023Z,2.80
2018-09-23T10:29:13.980Z,2.40
2018-09-23T10:30:13.950Z,2.30
2018-09-23T10:31:13.985Z,2.90
2018-09-23T10:32:13.883Z,2.70
2018-09-23T10:33:13.851Z,2.80
2018-09-23T10:34:13.814Z,2.60
2018-09-23T10:35:13.786Z,2.60
2018-09-23T10:36:14.838Z,2.90
2018-09-23T10:37:13.719Z,3.50
2018-09-23T10:38:13.760Z,3.30
2018-09-23T10:39:13.705Z,3.50
2018-09-23T10:40:13.623Z,3.50
2018-09-23T10:41:13.612Z,3.50
2018-09-23T10:42:13.567Z,3.50
2018-09-23T10:43:13.523Z,3.60
2018-09-23T10:44:13.546Z,3.00
2018-09-23T10:45:13.464Z,3.00
2018-09-23T10:46:13.442Z,3.90
2018-09-23T10:47:13.396Z,4.00
2018-09-23T10:48:13.384Z,3.90
2018-09-23T10:49:13.335Z,4.60
2018-09-23T10:50:13.355Z,4.70
2018-09-23T10:51:13.315Z,4.50
2018-09-23T10:52:13.234Z,3.70
2018-09-23T10:53:13.253Z,3.90
2018-09-23T10:54:13.218Z,3.80
2018-09-23T10:55:13.135Z,3.80
2018-09-23T10:56:13.102Z,4.20
2018-09-23T10:57:13.067Z,3.60
2018-09-23T10:58:13.037Z,4.20
2018-09-23T10:59:13.057Z,3.50
2018-09-23T11:00:12.970Z,4.50
2018-09-23T11:01:12.989Z,4.70
2018-09-23T11:02:12.967Z,5.20
2018-09-23T11:03:12.928Z,5.50
2018-09-23T11:04:12.904Z,5.70
2018-09-23T11:05:12.859Z,5.90
2018-09-23T11:06:12.823Z,5.50
2018-09-23T11:07:12.833Z,5.80
2018-09-23T11:08:12.758Z,6.10
2018-09-23T11:09:12.725Z,6.30
2018-09-23T11:10:12.694Z,7.00
2018-09-23T11:11:12.660Z,6.80
2018-09-23T11:12:12.573Z,6.90
2018-09-23T11:13:12.612Z,7.20
2018-09-23T11:14:12.560Z,7.40
2018-09-23T11:15:12.567Z,7.20
2018-09-23T11:16:12.493Z,7.30
2018-09-23T11:17:12.461Z,7.10
2018-09-23T11:18:12.426Z,6.20
2018-09-23T11:19:12.393Z,6.10
2018-09-23T11:20:12.360Z,6.90
2018-09-23T11:21:12.327Z,6.80
2018-09-23T11:22:12.291Z,7.00
2018-09-23T11:23:12.286Z,7.70
2018-09-23T11:24:12.225Z,7.40
2018-09-23T11:25:12.191Z,6.40
2018-09-23T11:26:12.158Z,6.80
2018-09-23T11:27:12.125Z,7.20
2018-09-23T11:28:12.035Z,6.10
2018-09-23T11:29:12.051Z,6.30
2018-09-23T11:30:12.026Z,5.80
2018-09-23T11:31:11.987Z,6.10
2018-09-23T11:32:11.962Z,5.90
2018-09-23T11:33:11.921Z,6.00
2018-09-23T11:34:11.884Z,5.30
2018-09-23T11:35:11.851Z,6.00
2018-09-23T11:36:11.818Z,7.50
2018-09-23T11:37:11.786Z,7.50
2018-09-23T11:38:11.774Z,5.60
2018-09-23T11:39:11.715Z,6.10
2018-09-23T11:40:11.683Z,5.90
2018-09-23T11:41:12.104Z,5.60
2018-09-23T11:42:11.616Z,6.30
2018-09-23T11:43:11.580Z,6.60
2018-09-23T11:44:11.547Z,6.90
2018-09-23T11:45:11.510Z,7.20
2018-09-23T11:46:11.479Z,6.70
2018-09-23T11:47:11.390Z,4.60
2018-09-23T11:48:11.415Z,3.50
2018-09-23T11:49:11.384Z,3.60
2018-09-23T11:50:11.344Z,4.00
2018-09-23T11:51:11.310Z,4.60
2018-09-23T11:52:11.278Z,5.90
2018-09-23T11:53:11.242Z,6.00
2018-09-23T11:54:11.251Z,5.90
2018-09-23T11:55:11.171Z,5.90
2018-09-23T11:56:11.141Z,6.60
2018-09-23T11:57:11.106Z,5.10
2018-09-23T11:58:11.076Z,4.30
2018-09-23T11:59:11.471Z,4.20
2018-09-23T12:00:11.007Z,4.70
2018-09-23T12:01:10.969Z,5.10
2018-09-23T12:02:10.989Z,5.20
2018-09-23T12:03:10.897Z,5.30
2018-09-23T12:04:10.865Z,5.40
2018-09-23T12:05:10.830Z,5.10
2018-09-23T12:06:10.797Z,4.80
2018-09-23T12:07:10.758Z,5.10
2018-09-23T12:08:10.737Z,5.20
2018-09-23T12:09:10.697Z,5.20
2018-09-23T12:10:10.609Z,5.60
2018-09-23T12:11:10.620Z,5.20
2018-09-23T12:12:10.591Z,5.60
2018-09-23T12:13:10.553Z,5.60
2018-09-23T12:14:10.526Z,5.40
2018-09-23T12:15:10.488Z,5.40
2018-09-23T12:16:10.452Z,5.10
2018-09-23T12:17:10.420Z,4.80
2018-09-23T12:18:10.391Z,4.60
2018-09-23T12:19:10.351Z,4.30
2018-09-23T12:20:10.317Z,4.20
2018-09-23T12:21:10.228Z,3.90
2018-09-23T12:22:10.190Z,3.80
2018-09-23T12:23:10.214Z,4.40
2018-09-23T12:24:10.173Z,3.90
2018-09-23T12:25:10.088Z,3.50
2018-09-23T12:26:10.052Z,3.80
2018-09-23T12:27:10.019Z,3.40
2018-09-23T12:28:10.037Z,4.00
2018-09-23T12:29:10.001Z,3.90
2018-09-23T12:30:10.005Z,3.70
2018-09-23T12:31:09.879Z,3.60
2018-09-23T12:32:09.848Z,3.10
2018-09-23T12:33:09.827Z,3.00
2018-09-23T12:34:09.776Z,3.30
2018-09-23T12:35:09.743Z,3.60
2018-09-23T12:36:09.731Z,3.90
2018-09-23T12:37:09.672Z,4.80
2018-09-23T12:38:09.692Z,5.60
2018-09-23T12:39:09.657Z,7.00
2018-09-23T12:40:09.627Z,8.60
2018-09-23T12:41:09.588Z,9.40
2018-09-23T12:42:09.555Z,9.90
2018-09-23T12:43:09.516Z,10.30
2018-09-23T12:44:09.486Z,10.30
2018-09-23T12:45:09.393Z,10.70
2018-09-23T12:46:09.524Z,10.00
2018-09-23T12:47:09.377Z,11.00
2018-09-23T12:48:09.345Z,11.90
2018-09-23T12:49:09.310Z,12.60
2018-09-23T12:50:09.273Z,10.90
2018-09-23T12:51:09.238Z,10.80
2018-09-23T12:52:09.154Z,11.40
2018-09-23T12:53:09.119Z,11.40
2018-09-23T12:54:09.085Z,11.90
2018-09-23T12:55:09.100Z,11.00
2018-09-23T12:56:09.064Z,10.00
2018-09-23T12:57:09.029Z,8.60
2018-09-23T12:58:08.996Z,8.10
2018-09-23T12:59:08.959Z,8.80
2018-09-23T13:00:08.922Z,9.40